Time;durP1;ratioP1;P1;durP2;ratioP2;P2;SDS_P1;SDS_P2;PMS_P1;PMS_P2;Temp;Humidity;BMP_temperature;BMP_pressure;BME280_temperature;BME280_humidity;BME280_pressure;Samples;Min_cycle;Max_cycle;Signal;HPM_P1;HPM_P2
2020/12/14 13:13:09;;;;;;;5.18;3.05;;;;;;;;;;5110395;27;20296;-80
2020/12/14 13:15:35;;;;;;;5.85;3.40;;;;;;;;;;5108988;28;20457;-79
2020/12/14 13:18:01;;;;;;;9.75;4.82;;;;;;;;;;5108506;28;20408;-79
2020/12/14 13:20:27;;;;;;;9.20;5.50;;;;;;;;;;5109020;28;20024;-80
2020/12/14 13:22:53;;;;;;;7.93;5.10;;;;;;;;;;5108895;28;20093;-80
2020/12/14 13:25:19;;;;;;;7.32;4.88;;;;;;;;;;5107617;28;20043;-77
2020/12/14 13:27:45;;;;;;;9.77;5.18;;;;;;;;;;5108199;28;20059;-77
2020/12/14 13:30:11;;;;;;;10.80;4.90;;;;;;;;;;5108549;28;20032;-78
2020/12/14 13:32:37;;;;;;;9.15;5.30;;;;;;;;;;5107620;28;20396;-81
2020/12/14 13:35:04;;;;;;;7.80;4.93;;;;;;;;;;5107530;28;20122;-81
2020/12/14 13:37:34;;;;;;;9.80;5.35;;;;;;;;;;5108184;28;20407;-79
2020/12/14 13:40:02;;;;;;;6.60;4.60;;;;;;;;;;5107712;28;20028;-78
2020/12/14 13:42:28;;;;;;;7.18;4.53;;;;;;;;;;5108935;28;20141;-79
2020/12/14 13:44:54;;;;;;;5.85;4.03;;;;;;;;;;5108465;28;20031;-80
2020/12/14 13:47:20;;;;;;;11.68;5.43;;;;;;;;;;5108087;28;20024;-81
2020/12/14 13:49:46;;;;;;;10.07;5.57;;;;;;;;;;5108581;28;20152;-78
2020/12/14 13:52:12;;;;;;;7.10;5.25;;;;;;;;;;5108372;28;20024;-77
2020/12/14 13:54:38;;;;;;;8.75;4.88;;;;;;;;;;5088053;28;20029;-77
2020/12/14 13:57:04;;;;;;;9.27;5.70;;;;;;;;;;5086160;28;20398;-77
2020/12/14 13:59:30;;;;;;;7.15;5.00;;;;;;;;;;5087876;28;20037;-77
2020/12/14 14:01:56;;;;;;;7.22;4.82;;;;;;;;;;5087727;28;20024;-77
2020/12/14 14:04:22;;;;;;;6.95;4.53;;;;;;;;;;5087806;28;20388;-77
2020/12/14 14:06:49;;;;;;;9.00;5.25;;;;;;;;;;5086857;28;20039;-77
2020/12/14 14:09:15;;;;;;;9.65;5.72;;;;;;;;;;5087766;28;20036;-79
2020/12/14 14:11:41;;;;;;;11.38;6.07;;;;;;;;;;5087577;28;20032;-78
2020/12/14 14:14:07;;;;;;;9.88;6.32;;;;;;;;;;5087598;28;20017;-79
2020/12/14 14:16:33;;;;;;;12.88;8.43;;;;;;;;;;5086806;28;20393;-77
2020/12/14 14:18:59;;;;;;;13.32;7.07;;;;;;;;;;5087699;28;20028;-79
2020/12/14 14:21:25;;;;;;;13.82;8.82;;;;;;;;;;5091728;28;20043;-79
2020/12/14 14:23:51;;;;;;;18.52;11.90;;;;;;;;;;5094310;28;20028;-78
2020/12/14 14:26:17;;;;;;;13.07;7.85;;;;;;;;;;5096805;28;20422;-79
2020/12/14 14:28:43;;;;;;;8.38;6.20;;;;;;;;;;5097104;28;20032;-80
2020/12/14 14:31:14;;;;;;;10.40;6.57;;;;;;;;;;5097733;28;20094;-80
2020/12/14 14:33:40;;;;;;;8.65;5.38;;;;;;;;;;5097209;28;20388;-80
2020/12/14 14:36:06;;;;;;;7.97;5.30;;;;;;;;;;5097858;28;20029;-80
2020/12/14 14:38:33;;;;;;;8.07;5.60;;;;;;;;;;5097482;28;20036;-80
2020/12/14 14:40:59;;;;;;;8.30;5.55;;;;;;;;;;5095177;28;20598;-78
2020/12/14 14:43:25;;;;;;;7.53;5.68;;;;;;;;;;5093708;28;20059;-77
2020/12/14 14:45:51;;;;;;;9.00;5.43;;;;;;;;;;5093589;28;20028;-77
2020/12/14 14:48:17;;;;;;;10.18;5.95;;;;;;;;;;5093018;28;20032;-77
2020/12/14 14:50:47;;;;;;;10.73;6.60;;;;;;;;;;5093759;28;20073;-77
2020/12/14 14:53:13;;;;;;;8.32;5.38;;;;;;;;;;5093640;28;20073;-77
2020/12/14 14:55:45;;;;;;;8.63;5.90;;;;;;;;;;5093651;28;20020;-78
2020/12/14 14:58:11;;;;;;;9.27;5.72;;;;;;;;;;5092946;28;20504;-77
2020/12/14 15:00:37;;;;;;;10.75;6.47;;;;;;;;;;5093474;28;20089;-77
2020/12/14 15:03:03;;;;;;;12.77;7.10;;;;;;;;;;5093393;28;20058;-77
2020/12/14 15:05:29;;;;;;;12.80;7.03;;;;;;;;;;5092678;28;20535;-78
2020/12/14 15:07:55;;;;;;;10.68;7.13;;;;;;;;;;5092591;28;20434;-77
2020/12/14 15:10:21;;;;;;;11.95;8.10;;;;;;;;;;5093317;28;20119;-76
2020/12/14 15:12:47;;;;;;;10.45;8.10;;;;;;;;;;5093055;28;20123;-83
2020/12/14 15:15:14;;;;;;;13.13;8.30;;;;;;;;;;5093028;28;20016;-76
2020/12/14 15:17:40;;;;;;;14.45;8.45;;;;;;;;;;5092174;28;20542;-77
2020/12/14 15:20:06;;;;;;;11.40;7.07;;;;;;;;;;5093219;28;20050;-77
2020/12/14 15:22:32;;;;;;;12.15;7.53;;;;;;;;;;5091901;28;20059;-77
2020/12/14 15:24:58;;;;;;;10.52;7.43;;;;;;;;;;5093188;28;20032;-77
2020/12/14 15:27:24;;;;;;;9.10;6.40;;;;;;;;;;5091202;28;20031;-77
2020/12/14 15:29:50;;;;;;;9.60;6.13;;;;;;;;;;5092738;28;20107;-77
2020/12/14 15:32:16;;;;;;;12.00;6.43;;;;;;;;;;5092047;28;20109;-77
2020/12/14 15:34:42;;;;;;;14.40;7.45;;;;;;;;;;5090141;28;20488;-77
